Time;durP1;ratioP1;P1;durP2;ratioP2;P2;SDS_P1;SDS_P2;PMS_P1;PMS_P2;Temp;Humidity;BMP_temperature;BMP_pressure;BME280_temperature;BME280_humidity;BME280_pressure;Samples;Min_cycle;Max_cycle;Signal;HPM_P1;HPM_P2
2022/08/03 00:00:00;;;;;;;2.65;1.65;;;18.40;8.30;;;;;;5049763;28;34312;-77
2022/08/03 00:02:26;;;;;;;1.60;1.50;;;18.40;7.80;;;;;;5084832;28;34124;-76
2022/08/03 00:04:52;;;;;;;5.70;1.75;;;18.30;8.00;;;;;;5066026;28;35768;-77
2022/08/03 00:07:18;;;;;;;2.28;1.63;;;18.30;8.10;;;;;;5084872;28;34117;-76
2022/08/03 00:09:44;;;;;;;1.58;1.48;;;18.20;8.10;;;;;;5084934;28;34221;-77
2022/08/03 00:12:10;;;;;;;1.42;1.33;;;18.20;8.20;;;;;;5080892;28;34318;-77
2022/08/03 00:14:36;;;;;;;2.97;1.70;;;18.20;8.40;;;;;;5086326;28;35539;-77
2022/08/03 00:17:02;;;;;;;3.35;1.60;;;18.10;8.50;;;;;;5086123;28;34185;-77
2022/08/03 00:19:28;;;;;;;1.90;1.55;;;18.10;8.50;;;;;;5086987;28;34100;-77
2022/08/03 00:21:54;;;;;;;1.45;1.35;;;18.00;8.50;;;;;;5062961;28;34061;-76
2022/08/03 00:24:20;;;;;;;2.33;1.90;;;18.00;8.60;;;;;;5054979;28;35786;-77
2022/08/03 00:26:46;;;;;;;2.45;1.60;;;17.90;8.80;;;;;;5069396;28;34336;-77
2022/08/03 00:29:12;;;;;;;2.47;1.80;;;17.90;8.80;;;;;;5049197;28;34247;-77
2022/08/03 00:31:38;;;;;;;2.55;1.50;;;17.80;8.80;;;;;;5065519;28;34531;-76
2022/08/03 00:34:04;;;;;;;2.15;1.90;;;17.90;8.90;;;;;;5063894;28;34552;-77
2022/08/03 00:36:30;;;;;;;1.70;1.60;;;17.80;8.90;;;;;;5064182;28;34153;-76
2022/08/03 00:38:56;;;;;;;1.90;1.80;;;17.80;9.00;;;;;;5046051;28;34387;-76
2022/08/03 00:41:22;;;;;;;2.00;1.80;;;17.80;9.10;;;;;;5045552;28;34421;-76
2022/08/03 00:43:48;;;;;;;1.92;1.80;;;17.70;9.10;;;;;;5049523;28;35538;-76
2022/08/03 00:46:14;;;;;;;1.80;1.70;;;17.70;9.20;;;;;;5050612;28;34021;-76
2022/08/03 00:48:40;;;;;;;1.67;1.50;;;17.70;9.40;;;;;;5065610;28;34270;-76
2022/08/03 00:51:06;;;;;;;2.22;1.67;;;17.60;9.40;;;;;;5069276;28;34370;-77
2022/08/03 00:53:34;;;;;;;3.38;2.00;;;17.60;9.40;;;;;;5089326;28;34811;-77
2022/08/03 00:56:00;;;;;;;1.85;1.75;;;17.50;9.60;;;;;;5079608;28;34191;-77
2022/08/03 00:58:26;;;;;;;2.45;1.95;;;17.50;9.60;;;;;;5083483;28;34007;-77
2022/08/03 01:00:52;;;;;;;2.28;1.70;;;17.40;9.60;;;;;;5065718;28;34169;-76
2022/08/03 01:03:18;;;;;;;1.73;1.63;;;17.40;9.60;;;;;;5065647;28;36396;-77
2022/08/03 01:06:06;;;;;;;2.20;1.80;;;17.40;9.70;;;;;;5082689;28;34201;-76
2022/08/03 01:08:46;;;;;;;2.53;1.73;;;17.40;12.40;;;;;;5083314;28;34201;-76
2022/08/03 01:11:39;;;;;;;1.60;1.50;;;17.30;11.80;;;;;;5045103;28;34578;-77
2022/08/03 01:14:14;;;;;;;1.80;1.70;;;17.30;13.50;;;;;;5045044;28;35891;-77
2022/08/03 01:16:54;;;;;;;1.90;1.70;;;17.20;10.90;;;;;;5045171;28;34451;-76
2022/08/03 01:19:44;;;;;;;1.95;1.60;;;17.20;10.90;;;;;;5080557;28;34179;-77
2022/08/03 01:22:38;;;;;;;2.38;1.80;;;17.20;12.80;;;;;;5058868;28;34165;-76
2022/08/03 01:25:24;;;;;;;2.70;1.92;;;17.20;12.20;;;;;;5051141;28;34635;-77
2022/08/03 01:28:21;;;;;;;2.17;1.98;;;17.20;11.00;;;;;;5088104;28;34088;-76
2022/08/03 01:30:49;;;;;;;4.03;1.75;;;17.20;12.40;;;;;;5104201;27;34180;-77
2022/08/03 01:33:21;;;;;;;2.40;1.83;;;17.10;10.10;;;;;;5066579;28;34532;-77
2022/08/03 01:35:58;;;;;;;2.22;2.03;;;17.00;10.40;;;;;;5086634;28;34403;-76
2022/08/03 01:38:28;;;;;;;3.50;2.03;;;17.00;10.80;;;;;;5052263;28;34110;-77
2022/08/03 01:40:56;;;;;;;2.10;1.90;;;17.00;10.60;;;;;;5052603;28;34396;-76
2022/08/03 01:43:27;;;;;;;1.80;1.70;;;17.00;10.50;;;;;;5086735;28;34206;-76
2022/08/03 01:45:56;;;;;;;2.00;1.70;;;16.90;11.20;;;;;;5085395;28;35788;-76
2022/08/03 01:48:22;;;;;;;3.17;1.90;;;16.90;10.60;;;;;;5068328;28;34096;-77
2022/08/03 01:50:50;;;;;;;3.80;2.10;;;16.90;10.60;;;;;;5068603;28;34063;-77
2022/08/03 01:53:17;;;;;;;4.78;2.05;;;16.90;10.70;;;;;;5068429;28;34694;-76
2022/08/03 01:55:46;;;;;;;3.00;2.17;;;16.80;10.70;;;;;;5066921;28;35831;-77
2022/08/03 01:58:15;;;;;;;2.15;1.65;;;16.80;10.90;;;;;;5071503;28;34535;-76
2022/08/03 02:00:42;;;;;;;2.63;2.13;;;16.80;11.10;;;;;;5043909;28;34142;-76
2022/08/03 02:03:12;;;;;;;3.80;2.15;;;16.80;10.90;;;;;;5086247;28;34318;-76
2022/08/03 02:05:39;;;;;;;4.95;2.05;;;16.70;11.30;;;;;;5068061;28;35686;-76
2022/08/03 02:08:07;;;;;;;2.15;1.88;;;16.60;11.10;;;;;;5068753;28;34203;-77
2022/08/03 02:10:36;;;;;;;4.35;1.70;;;16.60;11.10;;;;;;5068891;28;34300;-76
2022/08/03 02:13:05;;;;;;;2.45;1.77;;;16.60;11.20;;;;;;5086405;28;34159;-77
2022/08/03 02:15:32;;;;;;;2.22;2.03;;;16.60;11.20;;;;;;5086198;28;34408;-76
2022/08/03 02:18:00;;;;;;;1.85;1.75;;;16.50;11.40;;;;;;5068358;28;34194;-76
2022/08/03 02:20:27;;;;;;;2.25;2.05;;;16.50;11.50;;;;;;5084937;28;34222;-78
2022/08/03 02:22:54;;;;;;;2.33;1.85;;;16.50;11.40;;;;;;5086140;28;34319;-76
2022/08/03 02:25:20;;;;;;;2.20;2.00;;;16.50;11.40;;;;;;5067225;28;35579;-77
2022/08/03 02:27:52;;;;;;;3.80;2.00;;;16.50;11.50;;;;;;5069713;28;34153;-76
2022/08/03 02:30:19;;;;;;;3.58;2.00;;;16.50;12.20;;;;;;5067806;28;34062;-77
2022/08/03 02:32:53;;;;;;;2.40;1.65;;;16.40;11.60;;;;;;5067964;28;34093;-76
2022/08/03 02:35:22;;;;;;;2.92;2.10;;;16.40;12.00;;;;;;5081968;28;36365;-78
2022/08/03 02:37:53;;;;;;;2.10;1.90;;;16.40;11.70;;;;;;5067641;28;34394;-77
2022/08/03 02:40:21;;;;;;;2.20;2.00;;;16.40;12.00;;;;;;5051761;28;34157;-77
2022/08/03 02:42:53;;;;;;;3.00;2.08;;;16.30;11.70;;;;;;5051209;28;34164;-76
2022/08/03 02:45:23;;;;;;;2.45;2.20;;;16.30;12.10;;;;;;5051465;28;36149;-76
2022/08/03 02:47:51;;;;;;;2.03;1.73;;;16.30;11.80;;;;;;5051494;28;34200;-77
2022/08/03 02:50:19;;;;;;;1.90;1.70;;;16.30;11.80;;;;;;5089086;28;34532;-76
2022/08/03 02:52:47;;;;;;;1.92;1.77;;;16.30;11.80;;;;;;5067885;28;34079;-77
2022/08/03 02:55:15;;;;;;;1.75;1.63;;;16.20;11.80;;;;;;5067095;28;35866;-77
2022/08/03 02:57:43;;;;;;;2.28;2.08;;;16.20;11.80;;;;;;5069021;28;34158;-76
2022/08/03 03:00:10;;;;;;;1.70;1.60;;;16.20;11.80;;;;;;5073464;28;34197;-76
2022/08/03 03:02:37;;;;;;;4.47;2.00;;;16.20;11.80;;;;;;5066070;28;36072;-76
2022/08/03 03:05:04;;;;;;;8.75;2.22;;;16.20;11.90;;;;;;5065312;28;35867;-77
2022/08/03 03:07:31;;;;;;;4.90;2.10;;;16.20;12.00;;;;;;5080102;28;35814;-77
2022/08/03 03:09:58;;;;;;;10.48;2.50;;;16.10;12.00;;;;;;5081485;28;34306;-76
2022/08/03 03:12:26;;;;;;;4.88;2.10;;;16.10;11.90;;;;;;5067724;28;34084;-76
2022/08/03 03:14:52;;;;;;;3.05;1.90;;;16.00;12.00;;;;;;5084141;28;35612;-77
2022/08/03 03:17:20;;;;;;;2.00;1.83;;;16.00;11.90;;;;;;5066347;28;34184;-77
2022/08/03 03:19:47;;;;;;;3.60;2.25;;;16.00;12.20;;;;;;5084383;28;34123;-77
2022/08/03 03:22:14;;;;;;;2.28;2.03;;;15.90;12.20;;;;;;5100811;28;34469;-77
2022/08/03 03:24:42;;;;;;;2.65;2.00;;;15.90;12.20;;;;;;5084078;28;35504;-77
2022/08/03 03:27:08;;;;;;;2.47;2.25;;;15.90;12.50;;;;;;5083236;28;34294;-78
2022/08/03 03:29:34;;;;;;;2.50;2.30;;;15.90;12.40;;;;;;5048854;28;34450;-77
2022/08/03 03:32:01;;;;;;;1.88;1.75;;;15.80;12.40;;;;;;5047068;28;34320;-77
2022/08/03 03:34:29;;;;;;;2.00;1.80;;;15.80;12.40;;;;;;5046612;28;35730;-77
2022/08/03 03:36:55;;;;;;;2.80;2.10;;;15.80;12.60;;;;;;5046835;28;34364;-78
2022/08/03 03:39:21;;;;;;;2.95;2.08;;;15.80;12.50;;;;;;5060526;28;34807;-77
2022/08/03 03:41:48;;;;;;;2.20;2.00;;;15.80;12.60;;;;;;5083868;28;34167;-77
2022/08/03 03:44:14;;;;;;;2.83;2.45;;;15.70;12.70;;;;;;5083757;28;35607;-77
2022/08/03 03:46:40;;;;;;;2.75;2.00;;;15.60;12.70;;;;;;5083734;28;34334;-78
2022/08/03 03:49:06;;;;;;;1.88;1.70;;;15.60;12.80;;;;;;5078340;28;34217;-77
2022/08/03 03:51:32;;;;;;;2.47;1.90;;;15.60;12.80;;;;;;5067001;28;34560;-78
2022/08/03 03:53:59;;;;;;;2.35;1.92;;;15.60;12.90;;;;;;5066678;28;35800;-77
2022/08/03 03:56:26;;;;;;;2.45;2.25;;;15.60;12.80;;;;;;5049789;28;34241;-79
2022/08/03 03:58:52;;;;;;;3.35;1.70;;;15.60;12.90;;;;;;5066291;28;34247;-77
2022/08/03 04:01:19;;;;;;;2.47;2.10;;;15.60;12.90;;;;;;5083175;28;34304;-78
2022/08/03 04:03:46;;;;;;;2.10;1.90;;;15.50;12.90;;;;;;5086898;28;35587;-77
2022/08/03 04:11:44;;;;;;;1.85;1.75;;;15.50;13.50;;;;;;5083363;28;34261;-78
2022/08/03 04:14:15;;;;;;;2.55;2.08;;;15.50;13.30;;;;;;5068678;28;36000;-77
2022/08/03 04:16:45;;;;;;;2.58;2.22;;;15.40;13.10;;;;;;5082605;28;34246;-78
2022/08/03 04:19:17;;;;;;;2.13;1.92;;;15.40;13.20;;;;;;5083934;28;34132;-77
2022/08/03 04:21:45;;;;;;;2.47;2.10;;;15.50;13.40;;;;;;5065964;28;34549;-77
2022/08/03 04:24:14;;;;;;;2.10;1.95;;;15.40;13.10;;;;;;5053435;28;36722;-78
2022/08/03 04:26:44;;;;;;;2.42;2.05;;;15.40;13.10;;;;;;5048159;28;34247;-77
2022/08/03 04:29:12;;;;;;;2.58;2.13;;;15.40;13.30;;;;;;5052983;28;34230;-77
2022/08/03 04:31:40;;;;;;;2.63;2.20;;;15.40;13.20;;;;;;5067102;28;34263;-77
2022/08/03 04:34:07;;;;;;;3.17;2.17;;;15.40;13.30;;;;;;5065484;28;36133;-77
2022/08/03 04:36:38;;;;;;;4.45;2.30;;;15.40;13.30;;;;;;5065751;28;34172;-77
2022/08/03 04:39:12;;;;;;;2.20;2.00;;;15.40;13.70;;;;;;5032100;28;34310;-77
2022/08/03 04:41:39;;;;;;;2.35;2.08;;;15.40;13.80;;;;;;5048190;28;34303;-77
2022/08/03 04:44:06;;;;;;;2.40;2.15;;;15.40;13.50;;;;;;5065839;28;36762;-77
2022/08/03 04:46:37;;;;;;;5.45;2.40;;;15.40;13.50;;;;;;5052902;28;34152;-77
2022/08/03 04:49:05;;;;;;;2.67;2.33;;;15.40;13.80;;;;;;5065269;28;34417;-78
2022/08/03 04:51:33;;;;;;;2.20;2.00;;;15.50;13.70;;;;;;5049484;28;34543;-77
2022/08/03 04:54:00;;;;;;;2.55;2.35;;;15.50;13.60;;;;;;5065786;28;35862;-77
2022/08/03 04:56:27;;;;;;;3.13;2.33;;;15.50;13.70;;;;;;5051960;28;34192;-78
2022/08/03 04:58:53;;;;;;;2.30;2.03;;;15.50;13.60;;;;;;5052482;28;34164;-77
2022/08/03 05:01:19;;;;;;;2.47;2.28;;;15.50;13.80;;;;;;5072189;28;34354;-77
2022/08/03 05:03:46;;;;;;;2.08;1.83;;;15.60;13.80;;;;;;5045667;28;36560;-78
2022/08/03 05:06:12;;;;;;;8.27;2.33;;;15.60;13.90;;;;;;5057839;28;34267;-77
2022/08/03 05:08:38;;;;;;;3.20;2.20;;;15.60;13.90;;;;;;5065734;28;34201;-77
2022/08/03 05:11:04;;;;;;;2.72;2.00;;;15.60;13.90;;;;;;5069176;28;34144;-79
2022/08/03 05:13:31;;;;;;;2.05;1.85;;;15.60;13.80;;;;;;5066766;28;34337;-77
2022/08/03 05:15:57;;;;;;;2.60;2.28;;;15.60;13.80;;;;;;5079108;28;34374;-77
2022/08/03 05:18:23;;;;;;;2.08;1.88;;;15.70;13.90;;;;;;5054350;28;34372;-77
2022/08/03 05:20:49;;;;;;;2.70;2.28;;;15.80;13.80;;;;;;5082769;28;34576;-77
2022/08/03 05:23:15;;;;;;;2.72;2.35;;;16.30;13.50;;;;;;5065689;28;35699;-77
2022/08/03 05:25:41;;;;;;;2.40;2.10;;;17.10;12.60;;;;;;5056287;28;34110;-78
2022/08/03 05:28:07;;;;;;;9.52;2.30;;;18.10;11.30;;;;;;5078610;28;34160;-77
2022/08/03 05:30:33;;;;;;;2.08;1.90;;;19.00;10.00;;;;;;5057921;28;34007;-78
2022/08/03 05:32:59;;;;;;;2.13;1.95;;;19.70;8.90;;;;;;5081758;28;34392;-77
2022/08/03 05:35:26;;;;;;;2.10;1.90;;;20.30;8.20;;;;;;5073470;28;34377;-78
2022/08/03 05:37:52;;;;;;;2.50;1.90;;;20.70;7.80;;;;;;5065883;28;34093;-78
2022/08/03 05:40:18;;;;;;;3.30;2.33;;;21.10;7.40;;;;;;5082072;28;34226;-78
2022/08/03 05:42:44;;;;;;;2.83;2.20;;;21.30;7.10;;;;;;5082533;28;36047;-78
2022/08/03 05:45:13;;;;;;;2.58;2.10;;;21.50;6.90;;;;;;5059456;28;34209;-79
2022/08/03 05:47:40;;;;;;;4.80;2.55;;;21.80;6.70;;;;;;5030830;28;34649;-78
2022/08/03 05:50:07;;;;;;;3.05;2.40;;;22.10;6.40;;;;;;5045491;28;34481;-78
2022/08/03 05:52:33;;;;;;;2.85;2.53;;;22.40;6.10;;;;;;5062703;28;34090;-78
2022/08/03 05:54:59;;;;;;;2.83;2.10;;;22.70;5.80;;;;;;5077692;28;34122;-78
2022/08/03 05:57:25;;;;;;;3.08;2.22;;;23.10;5.20;;;;;;5084065;28;34618;-78
2022/08/03 05:59:51;;;;;;;2.20;2.00;;;23.60;4.40;;;;;;5114647;27;34314;-79
2022/08/03 06:02:17;;;;;;;4.30;1.92;;;24.20;3.70;;;;;;5049978;28;35775;-79
2022/08/03 06:04:44;;;;;;;2.63;2.33;;;24.70;3.00;;;;;;5049206;28;34140;-78
2022/08/03 06:07:10;;;;;;;4.20;2.13;;;25.30;2.20;;;;;;5062796;28;34126;-79
2022/08/03 06:09:36;;;;;;;2.72;2.30;;;25.80;1.40;;;;;;5067441;28;34098;-79
2022/08/03 06:12:02;;;;;;;2.60;2.25;;;26.50;1.00;;;;;;5085419;28;36594;-78
2022/08/03 06:14:29;;;;;;;2.40;2.20;;;27.10;1.00;;;;;;5049153;28;34480;-80
2022/08/03 06:16:55;;;;;;;2.65;2.15;;;27.60;1.00;;;;;;5086931;28;34110;-79
2022/08/03 06:19:23;;;;;;;5.30;2.15;;;28.00;1.00;;;;;;5098785;28;34651;-79
2022/08/03 06:21:49;;;;;;;2.33;2.10;;;28.50;1.00;;;;;;5042263;28;35990;-79
2022/08/03 06:24:15;;;;;;;5.15;2.35;;;29.00;1.00;;;;;;5047414;28;34178;-79
2022/08/03 06:26:41;;;;;;;2.55;2.25;;;29.50;1.00;;;;;;5052620;28;34114;-79
2022/08/03 06:29:07;;;;;;;2.67;2.10;;;29.80;1.00;;;;;;5067130;28;34208;-79
2022/08/03 06:31:33;;;;;;;2.30;2.10;;;30.10;1.00;;;;;;5080412;28;35607;-79
2022/08/03 06:34:03;;;;;;;3.20;2.10;;;30.30;1.00;;;;;;5070053;28;34169;-79
2022/08/03 06:36:30;;;;;;;1.88;1.77;;;30.70;1.00;;;;;;5065456;28;34247;-79
2022/08/03 06:38:58;;;;;;;2.75;1.98;;;31.10;1.00;;;;;;5060770;28;34542;-78
2022/08/03 06:41:25;;;;;;;3.40;2.45;;;31.20;1.00;;;;;;5100976;28;36651;-80
2022/08/03 06:43:53;;;;;;;3.55;2.25;;;31.30;1.00;;;;;;5086538;28;34368;-79
2022/08/03 06:46:19;;;;;;;3.15;2.03;;;31.50;1.00;;;;;;5065916;28;34086;-80
2022/08/03 06:48:46;;;;;;;2.15;2.00;;;31.60;1.00;;;;;;5064360;28;34531;-80
2022/08/03 06:51:12;;;;;;;2.40;2.20;;;31.80;1.00;;;;;;5084101;28;36594;-78
2022/08/03 06:53:40;;;;;;;2.47;2.28;;;32.00;1.00;;;;;;5068088;28;34404;-80
2022/08/03 06:56:07;;;;;;;2.25;1.90;;;32.00;1.00;;;;;;5059026;28;34213;-78
2022/08/03 06:58:34;;;;;;;1.98;1.80;;;32.00;1.00;;;;;;5067525;28;35029;-79
2022/08/03 07:01:00;;;;;;;5.15;2.05;;;32.10;1.00;;;;;;5085353;28;35053;-78
2022/08/03 07:03:27;;;;;;;2.03;1.83;;;32.00;1.00;;;;;;5067598;28;34154;-79
2022/08/03 07:05:53;;;;;;;3.72;2.45;;;32.00;1.00;;;;;;5050367;28;34272;-78
2022/08/03 07:08:19;;;;;;;5.82;1.92;;;32.00;1.00;;;;;;5085152;28;34329;-78
2022/08/03 07:10:45;;;;;;;2.22;2.00;;;32.20;1.00;;;;;;5062421;28;35600;-78
2022/08/03 07:13:12;;;;;;;2.95;1.73;;;32.10;1.00;;;;;;5083669;28;34296;-78
2022/08/03 07:15:39;;;;;;;2.47;2.28;;;32.10;1.00;;;;;;5085648;28;34384;-78
2022/08/03 07:18:05;;;;;;;2.67;1.83;;;32.10;1.00;;;;;;5067170;28;34245;-77
2022/08/03 07:20:32;;;;;;;2.00;1.80;;;32.20;1.00;;;;;;5061802;28;35759;-78
2022/08/03 07:22:58;;;;;;;3.35;1.77;;;32.20;1.00;;;;;;5064573;28;34381;-77
2022/08/03 07:25:24;;;;;;;3.05;2.00;;;32.40;1.00;;;;;;5083128;28;34291;-78
2022/08/03 07:27:51;;;;;;;8.60;2.10;;;32.60;1.00;;;;;;5067052;28;34419;-79
2022/08/03 07:30:17;;;;;;;3.63;2.47;;;32.70;1.00;;;;;;5067632;28;36870;-78
2022/08/03 07:32:43;;;;;;;6.35;2.40;;;32.90;1.00;;;;;;5066599;28;34323;-77
2022/08/03 07:35:10;;;;;;;4.43;2.50;;;32.90;1.00;;;;;;5049348;28;34470;-77
2022/08/03 07:37:37;;;;;;;5.45;1.98;;;32.90;1.00;;;;;;5066086;28;34260;-78
2022/08/03 07:40:06;;;;;;;1.95;1.77;;;33.00;1.00;;;;;;5067960;28;35734;-80
2022/08/03 07:42:32;;;;;;;3.65;2.28;;;33.20;1.00;;;;;;5053677;28;34597;-77
2022/08/03 07:44:59;;;;;;;2.33;2.05;;;33.30;1.00;;;;;;5100452;28;34667;-78
2022/08/03 07:47:28;;;;;;;2.17;1.92;;;33.20;1.00;;;;;;5083393;28;34403;-77
2022/08/03 07:49:54;;;;;;;3.10;2.00;;;33.10;1.00;;;;;;5068542;28;34320;-77
2022/08/03 07:55:03;;;;;;;1.75;1.65;;;33.40;1.00;;;;;;5067632;28;34445;-76
2022/08/03 07:57:29;;;;;;;1.88;1.77;;;33.20;1.00;;;;;;5084073;28;34239;-77
2022/08/03 07:59:55;;;;;;;1.90;1.70;;;33.00;1.00;;;;;;5064776;28;35818;-77
2022/08/03 08:02:22;;;;;;;2.75;1.60;;;33.10;1.00;;;;;;5061081;28;34469;-78
2022/08/03 08:04:48;;;;;;;5.25;1.60;;;33.20;1.00;;;;;;5057868;28;34034;-77
2022/08/03 08:07:14;;;;;;;1.80;1.45;;;33.40;1.00;;;;;;5066088;28;34028;-76
2022/08/03 08:09:40;;;;;;;1.48;1.38;;;33.50;1.00;;;;;;5069712;28;35979;-78
2022/08/03 08:12:07;;;;;;;1.48;1.38;;;33.70;1.00;;;;;;5066112;28;34171;-77
2022/08/03 08:14:34;;;;;;;1.40;1.27;;;33.90;1.00;;;;;;5066562;28;34460;-76
2022/08/03 08:17:00;;;;;;;4.07;1.63;;;34.00;1.00;;;;;;5055525;28;34426;-77
2022/08/03 08:19:26;;;;;;;1.55;1.45;;;34.10;1.00;;;;;;5057496;28;35692;-77
2022/08/03 08:21:52;;;;;;;1.58;1.48;;;34.20;1.00;;;;;;5066458;28;34188;-77
2022/08/03 08:24:18;;;;;;;1.58;1.45;;;34.20;1.00;;;;;;5066263;28;34551;-77
2022/08/03 08:26:44;;;;;;;2.00;1.80;;;34.10;1.00;;;;;;5083881;28;34694;-77
2022/08/03 08:29:11;;;;;;;2.17;1.55;;;34.20;1.00;;;;;;5055713;28;35777;-77
2022/08/03 08:31:37;;;;;;;1.95;1.63;;;34.20;1.00;;;;;;5066055;28;34152;-77
2022/08/03 08:34:04;;;;;;;4.57;1.45;;;34.20;1.00;;;;;;5082751;28;34309;-77
2022/08/03 08:36:33;;;;;;;1.63;1.42;;;34.30;1.00;;;;;;5050041;28;34602;-78
2022/08/03 08:38:59;;;;;;;1.70;1.58;;;34.40;1.00;;;;;;5066267;28;36204;-79
2022/08/03 08:41:26;;;;;;;2.85;1.60;;;34.20;1.00;;;;;;5058056;28;34251;-77
2022/08/03 08:43:54;;;;;;;1.67;1.58;;;34.40;1.00;;;;;;5066264;28;34448;-77
2022/08/03 08:46:20;;;;;;;1.50;1.40;;;34.30;1.00;;;;;;5084848;28;34065;-77
2022/08/03 08:48:48;;;;;;;1.75;1.50;;;34.20;1.00;;;;;;5064001;28;36052;-77
2022/08/03 08:51:18;;;;;;;1.58;1.42;;;34.00;1.00;;;;;;5066243;28;34165;-77
2022/08/03 08:53:50;;;;;;;2.25;1.30;;;33.90;1.00;;;;;;5065723;28;34247;-77
2022/08/03 08:56:16;;;;;;;1.48;1.25;;;34.00;1.00;;;;;;5049690;28;34087;-77
2022/08/03 08:58:48;;;;;;;1.48;1.38;;;34.00;1.00;;;;;;5048195;28;36091;-76
2022/08/03 09:01:16;;;;;;;1.20;1.10;;;33.90;1.00;;;;;;5075856;28;34496;-78
2022/08/03 09:03:43;;;;;;;2.90;1.10;;;34.00;1.00;;;;;;5067036;28;34214;-77
2022/08/03 09:06:09;;;;;;;0.98;0.98;;;34.20;1.00;;;;;;5071412;28;34097;-78
2022/08/03 09:08:36;;;;;;;1.55;1.25;;;34.50;1.00;;;;;;5062860;28;36314;-78
2022/08/03 09:11:22;;;;;;;1.83;1.10;;;34.90;1.00;;;;;;5064535;28;35521;-78
2022/08/03 09:13:49;;;;;;;2.03;1.10;;;35.20;1.00;;;;;;5061799;28;34534;-77
2022/08/03 09:16:18;;;;;;;3.40;1.63;;;35.20;1.00;;;;;;5055856;28;34287;-78
2022/08/03 09:18:47;;;;;;;2.25;1.00;;;35.40;1.00;;;;;;5064453;28;36384;-77
2022/08/03 09:21:16;;;;;;;2.15;0.90;;;35.20;1.00;;;;;;5051881;28;34469;-78
2022/08/03 09:23:45;;;;;;;1.20;0.80;;;35.10;1.00;;;;;;5070331;28;34157;-78
2022/08/03 09:26:11;;;;;;;1.20;1.10;;;35.10;1.00;;;;;;5054441;28;34394;-78
2022/08/03 09:28:37;;;;;;;2.70;1.00;;;35.20;1.00;;;;;;5075590;28;34279;-78
2022/08/03 09:31:03;;;;;;;4.88;0.93;;;35.20;1.00;;;;;;5093469;28;34254;-80
2022/08/03 09:33:29;;;;;;;1.58;1.10;;;35.30;1.00;;;;;;5054874;28;34115;-78
2022/08/03 09:35:57;;;;;;;1.17;1.08;;;35.20;1.00;;;;;;5065585;28;34239;-77
2022/08/03 09:38:26;;;;;;;1.70;1.10;;;35.20;1.00;;;;;;5059050;28;35980;-78
2022/08/03 09:40:53;;;;;;;2.85;1.30;;;35.40;1.00;;;;;;5070122;28;34133;-79
2022/08/03 09:43:19;;;;;;;2.38;1.50;;;35.60;1.00;;;;;;5066214;28;34280;-76
2022/08/03 09:45:46;;;;;;;1.30;1.20;;;35.50;1.00;;;;;;5083016;28;34138;-78
2022/08/03 09:48:28;;;;;;;1.30;1.20;;;35.40;1.00;;;;;;5069283;28;37057;-79
2022/08/03 09:50:58;;;;;;;1.40;1.23;;;35.40;1.00;;;;;;5081259;28;34136;-77
2022/08/03 09:53:24;;;;;;;2.42;1.10;;;35.60;1.00;;;;;;5087753;28;34192;-77
2022/08/03 09:55:59;;;;;;;3.28;1.42;;;35.60;1.00;;;;;;5095473;28;34126;-77
2022/08/03 09:58:27;;;;;;;1.85;1.20;;;35.50;1.00;;;;;;5072084;28;36217;-81
2022/08/03 10:00:56;;;;;;;1.10;1.00;;;35.50;1.00;;;;;;5053752;28;34305;-76
2022/08/03 10:03:24;;;;;;;2.45;1.08;;;35.50;1.00;;;;;;5069911;28;34139;-77
2022/08/03 10:05:50;;;;;;;1.70;1.27;;;35.70;1.00;;;;;;5088205;28;34455;-78
2022/08/03 10:08:18;;;;;;;1.02;1.00;;;36.10;1.00;;;;;;5068789;28;35910;-77
2022/08/03 10:10:46;;;;;;;1.15;1.08;;;36.20;1.00;;;;;;5088826;28;34176;-77
2022/08/03 10:13:13;;;;;;;1.55;1.20;;;36.20;1.00;;;;;;5051258;28;34090;-78
2022/08/03 10:15:40;;;;;;;1.27;1.13;;;36.20;1.00;;;;;;5089541;28;34273;-79
2022/08/03 10:18:07;;;;;;;1.50;1.20;;;36.00;1.00;;;;;;5036190;28;35509;-78
2022/08/03 10:20:40;;;;;;;1.45;1.08;;;36.10;1.00;;;;;;5069220;28;34158;-78
2022/08/03 10:23:09;;;;;;;2.35;1.10;;;36.00;1.00;;;;;;5104799;28;34309;-77
2022/08/03 10:25:38;;;;;;;1.70;0.90;;;36.00;1.00;;;;;;5081884;28;34246;-78
2022/08/03 10:28:05;;;;;;;1.38;0.93;;;35.80;1.00;;;;;;5069338;27;36687;-76
2022/08/03 10:30:32;;;;;;;0.90;0.90;;;35.80;1.00;;;;;;5069870;28;34177;-78
2022/08/03 10:33:06;;;;;;;2.35;0.70;;;35.90;1.00;;;;;;5068902;28;34269;-78
2022/08/03 10:35:33;;;;;;;1.50;0.80;;;36.00;1.00;;;;;;5093664;27;33861;-80
2022/08/03 10:38:06;;;;;;;3.03;0.90;;;36.00;1.00;;;;;;5069491;28;35819;-80
2022/08/03 10:40:34;;;;;;;1.88;0.90;;;36.10;1.00;;;;;;5074094;28;33977;-78
2022/08/03 10:43:08;;;;;;;1.33;0.80;;;36.20;1.00;;;;;;5085212;28;33994;-78
2022/08/03 10:45:40;;;;;;;2.83;0.70;;;36.40;1.00;;;;;;5050009;28;34489;-78
2022/08/03 10:48:07;;;;;;;0.98;0.88;;;36.50;1.00;;;;;;5081654;28;35673;-82
2022/08/03 10:50:34;;;;;;;1.70;0.90;;;36.50;1.00;;;;;;5086066;28;34289;-80
2022/08/03 10:53:05;;;;;;;1.67;0.90;;;36.70;1.00;;;;;;5063007;28;34212;-79
2022/08/03 10:58:52;;;;;;;0.90;0.90;;;36.70;1.00;;;;;;5086836;28;34262;-78
2022/08/03 11:01:39;;;;;;;1.00;0.90;;;36.70;1.00;;;;;;5078176;28;34171;-79
2022/08/03 11:04:15;;;;;;;0.85;0.85;;;36.70;1.00;;;;;;5092773;28;34249;-78
2022/08/03 11:06:41;;;;;;;1.23;0.98;;;36.70;1.00;;;;;;5052149;28;34446;-78
2022/08/03 11:09:18;;;;;;;3.05;1.10;;;36.70;1.00;;;;;;5072236;28;35627;-78
2022/08/03 11:11:47;;;;;;;1.20;1.10;;;36.60;1.00;;;;;;5063161;28;34194;-78
2022/08/03 11:14:18;;;;;;;1.63;0.98;;;36.60;1.00;;;;;;5058314;28;34090;-79
2022/08/03 11:16:48;;;;;;;0.73;0.73;;;36.70;1.00;;;;;;5069152;28;34352;-79
2022/08/03 11:19:18;;;;;;;1.77;1.00;;;36.90;1.00;;;;;;5067425;28;35938;-77
2022/08/03 11:21:53;;;;;;;1.15;1.05;;;37.00;1.00;;;;;;5101409;28;34416;-77
2022/08/03 11:24:55;;;;;;;0.77;0.77;;;37.20;1.00;;;;;;5085539;28;34247;-78
2022/08/03 11:27:24;;;;;;;0.68;0.68;;;37.30;1.00;;;;;;5049478;28;34420;-79
2022/08/03 11:30:25;;;;;;;1.98;0.90;;;37.40;1.00;;;;;;5100726;28;35187;-80
2022/08/03 11:32:52;;;;;;;1.02;0.88;;;37.50;1.00;;;;;;5065692;28;34515;-78
2022/08/03 11:35:21;;;;;;;1.05;0.88;;;37.30;1.00;;;;;;5057739;28;34495;-78
2022/08/03 11:38:03;;;;;;;0.70;0.70;;;37.40;1.00;;;;;;5082689;28;34233;-78
2022/08/03 11:40:45;;;;;;;2.05;1.30;;;37.20;1.00;;;;;;5085218;28;34435;-77
2022/08/03 11:43:46;;;;;;;1.63;1.00;;;37.10;1.00;;;;;;5062143;28;34401;-77
2022/08/03 11:46:17;;;;;;;0.75;0.73;;;37.10;1.00;;;;;;5085584;28;34219;-78
2022/08/03 11:48:46;;;;;;;1.02;1.00;;;37.10;1.00;;;;;;5048630;28;34455;-78
2022/08/03 11:51:30;;;;;;;1.75;0.95;;;37.10;1.00;;;;;;5065567;28;35766;-78
2022/08/03 11:54:01;;;;;;;1.08;1.00;;;37.20;1.00;;;;;;5069664;28;34377;-77
2022/08/03 11:56:40;;;;;;;1.30;0.93;;;37.50;1.00;;;;;;5050732;28;34208;-78
2022/08/03 11:59:06;;;;;;;1.08;0.98;;;37.70;1.00;;;;;;5068149;28;34116;-78
2022/08/03 12:01:31;;;;;;;0.80;0.80;;;37.80;1.00;;;;;;5066623;28;35761;-79
2022/08/03 12:04:03;;;;;;;0.82;0.82;;;38.00;1.00;;;;;;5065775;28;34263;-81
2022/08/03 12:06:29;;;;;;;1.08;0.98;;;38.00;1.00;;;;;;5095359;28;34180;-82
2022/08/03 12:08:55;;;;;;;0.95;0.93;;;37.90;1.00;;;;;;5084947;28;34272;-80
2022/08/03 12:11:22;;;;;;;0.63;0.63;;;38.00;1.00;;;;;;5059812;28;35761;-77
2022/08/03 12:13:50;;;;;;;0.98;0.70;;;38.10;1.00;;;;;;5050231;28;34194;-79
2022/08/03 12:16:19;;;;;;;0.80;0.80;;;38.10;1.00;;;;;;5075694;28;33863;-81
2022/08/03 12:19:01;;;;;;;0.75;0.75;;;38.20;1.00;;;;;;5046648;28;34557;-82
2022/08/03 12:21:28;;;;;;;0.73;0.60;;;38.00;1.00;;;;;;5052104;28;35771;-80
2022/08/03 12:23:59;;;;;;;0.77;0.52;;;37.90;1.00;;;;;;5050318;28;34434;-78
2022/08/03 12:26:27;;;;;;;1.23;0.82;;;37.70;1.00;;;;;;5084191;28;34277;-79
2022/08/03 12:28:53;;;;;;;1.45;0.60;;;37.60;1.00;;;;;;5085025;28;34374;-77
2022/08/03 12:31:19;;;;;;;1.75;0.95;;;37.50;1.00;;;;;;5065508;28;35887;-78
2022/08/03 12:34:02;;;;;;;0.98;0.88;;;37.60;1.00;;;;;;5033433;28;34342;-78
2022/08/03 12:36:30;;;;;;;0.70;0.70;;;37.70;1.00;;;;;;5085554;28;34154;-78
2022/08/03 12:39:00;;;;;;;1.10;0.60;;;37.70;1.00;;;;;;5085887;28;34047;-78
2022/08/03 12:41:34;;;;;;;1.38;0.75;;;37.80;1.00;;;;;;5066541;28;36350;-78
2022/08/03 12:44:02;;;;;;;0.52;0.52;;;37.80;1.00;;;;;;5065754;28;34274;-75
2022/08/03 12:46:32;;;;;;;1.33;0.75;;;37.70;1.00;;;;;;5064299;28;34210;-78
2022/08/03 12:49:16;;;;;;;0.80;0.60;;;37.80;1.00;;;;;;5071787;28;34814;-78
2022/08/03 12:51:59;;;;;;;11.38;1.02;;;37.60;1.00;;;;;;5065585;28;35494;-79
2022/08/03 12:54:29;;;;;;;0.82;0.80;;;37.60;1.00;;;;;;5065574;28;34069;-79
2022/08/03 12:57:00;;;;;;;1.45;0.70;;;37.60;1.00;;;;;;5079958;28;34555;-77
2022/08/03 12:59:30;;;;;;;0.93;0.77;;;37.60;1.00;;;;;;5075893;28;34521;-77
2022/08/03 13:01:57;;;;;;;1.05;0.70;;;37.50;1.00;;;;;;5065538;28;34313;-78
2022/08/03 13:04:27;;;;;;;0.70;0.70;;;37.60;1.00;;;;;;5065624;28;34328;-76
2022/08/03 13:07:00;;;;;;;3.05;0.80;;;37.60;1.00;;;;;;5065645;28;34421;-78
2022/08/03 13:09:27;;;;;;;1.83;0.60;;;37.60;1.00;;;;;;5049195;28;34442;-76
2022/08/03 13:12:11;;;;;;;0.75;0.45;;;37.60;1.00;;;;;;5064917;28;34342;-76